Terminal Aerodrome Forecast
Issued by NWS

Home | Current Version | Previous Version | Text Only | Print | Product List | Glossary On
Versions: 1 2 3 4 5 6 7 8 9 10 11 12 13 14 15 16 17 18 19 20 21 22
988
FTUS41 KBGM 091928 AAA
TAFITH
TAF AMD
KITH 091928Z 0919/1018 31012G20KT P6SM OVC020
      TEMPO 0919/0920 4SM -SHSN
     FM092000 31011KT P6SM BKN035
      TEMPO 0920/0923 4SM -SHSN OVC025
     FM092300 30007KT 4SM -SHSN BKN025=

USA.gov is the U.S. government's official web portal to all federal, state and local government web resources and services.